Warning: Javascript must be enabled to use all the features on this page!


Page Loading - Please Wait...

Click to hideNews Bulletins

Peak Streamflow for the Nation

USGS 01388500 Pompton River at Pompton Plains NJ

Passaic County, New Jersey
Hydrologic Unit Code 02030103
Latitude  40°58'11", Longitude  74°16'55" NAD83
Drainage area 355  square miles
Gage datum 160.00 feet above NGVD29
Output formats
Table
Graph
Tab-separated file
peakfq (watstore) format
Reselect output format
Water
Year
Date Gage
Height
(feet)
Stream-
flow
(cfs)
1904 1903-10-10   28,3002,3,6,7,9
1941 1941-02-08 8.503 2,4405
1942 1942-08-18 9.643 2,8405
1943 1942-12-31 11.513 4,3105
1944 1944-04-25 9.843 3,1005
1945 1945-07-23 16.293 9,6905
1946 1946-05-28 10.863 3,5905
1947 1947-04-06 11.003 3,7505
1948 1948-03-17 10.023 3,1005
1949 1948-12-31 14.143 6,7805
1950 1950-03-23 8.653 2,4805
1951 1951-03-31 18.753 13,1005
1952 1952-06-02 16.373 9,7905
1953 1953-01-25 13.623 5,9805
1954 1953-12-15 7.013 1,7905
1955 1955-08-20 15.693 12,9005
1956 1955-10-16 17.063 15,8005
1957 1957-04-06 9.993 4,0505
1958 1957-12-21 12.613 6,6505
1959 1959-03-07 7.323 2,2605
1960 1960-04-06 11.933 5,7405
1961 1961-02-26 11.553 5,2405
1962 1962-03-13 8.723 3,1405
1963 1962-11-11 5.743 1,8605
1964 1964-01-26 5.923 1,7005
1965 1965-02-08 12.63 2,6005
1966 1966-09-22 11.67 1,9805
1967 1967-03-16 13.12 2,8805
1968 1968-05-30 22.18 12,3005
1969 1969-03-26 14.70 4,2205
1970 1970-04-03 19.28 8,5205
1971 1971-08-28 19.26 8,6105
1972 1972-06-23 18.04 7,2405
1973 1973-02-03 20.37 11,5005
1974 1973-12-22 19.27 9,7305
1975 1975-03-21 16.48 6,1505
1976 1976-01-28 16.94 6,6705
1977 1977-03-23   9,0005
1978 1977-11-09 19.71 11,6005
1979 1979-01-25 18.17 9,5205
1980 1980-04-10 19.56 12,0005
1981 1981-02-21 14.19 4,6005
1982 1982-01-05 13.34 3,8805
1983 1983-03-19 18.27 10,1005
1984 1984-04-06 24.47 25,4005
1985 1985-09-28 11.94 2,7105
1986 1986-04-18 13.81 4,2705
1987 1987-04-05 18.91 12,6005
1988 1988-05-20 11.70 3,2605
1989 1989-05-17 18.89 12,5005
1990 1989-10-21 14.20 5,7305
1991 1990-12-05 12.99 4,3705
1992 1992-06-06 14.75 6,6405
1993 1993-03-29 15.18 7,1705
1994 1994-03-29 12.59 4,2005
1995 1995-03-09 11.25 2,6205
1996 1996-01-28 16.96 9,4905
1997 1996-10-21 14.86 6,7705
1998 1998-05-12 16.32 8,6205
1999 1999-09-17 21.011 16,4005
2000 2000-06-08 12.20 3,7105
2001 2001-03-23 12.93 4,6105
2002 2002-05-14 11.35 2,2605
2003 2003-03-22 14.69 6,6105
2004 2003-12-12 16.77 9,2905
2005 2005-04-03 20.42 15,3005
2006 2005-10-09 17.86 10,6005
2007 2007-04-16 21.72 18,0006
2008 2008-03-09 15.43 6,9706
2009 2008-12-12 14.66 5,9806
2010 2010-03-14 22.77 18,9006
2011 2011-08-29 25.24 25,0006
2012 2011-12-08 15.48 5,9506
2013 2012-12-22 14.36 5,2206
2014 2014-05-01 15.63 6,8106
2015 2015-01-18 10.46 1,5606
2016 2016-02-25 14.31 5,2306
2017 2017-04-07 11.57 2,4906
2018 2018-04-16 13.89 4,7506
?
  Peak Gage-Height Qualification Codes.
?
  Peak Streamflow Qualification Codes.